createdAt,value
2022-08-20T00:02:05.105Z,23.17
2022-08-20T00:05:07.670Z,23.18
2022-08-20T00:07:54.899Z,23.16
2022-08-20T00:10:42.452Z,23.07
2022-08-20T00:14:01.012Z,23.02
2022-08-20T00:16:47.072Z,22.99
2022-08-20T00:19:40.644Z,22.97
2022-08-20T00:22:39.818Z,22.97
2022-08-20T00:25:13.032Z,22.96
2022-08-20T00:27:55.882Z,22.92
2022-08-20T00:30:56.202Z,22.88
2022-08-20T00:33:58.985Z,22.86
2022-08-20T00:39:40.902Z,22.67
2022-08-20T00:42:39.512Z,22.68
2022-08-20T00:45:20.498Z,22.69
2022-08-20T00:48:01.964Z,22.70
2022-08-20T00:50:52.799Z,22.75
2022-08-20T00:53:30.021Z,22.77
2022-08-20T00:56:20.228Z,22.74
2022-08-20T00:59:01.431Z,22.68
2022-08-20T01:01:54.836Z,22.64
2022-08-20T01:04:40.848Z,22.59
2022-08-20T01:07:35.805Z,22.56
2022-08-20T01:10:36.692Z,22.55
2022-08-20T01:13:12.685Z,22.58
2022-08-20T01:15:52.316Z,22.59
2022-08-20T01:18:25.373Z,22.57
2022-08-20T01:21:07.237Z,22.56
2022-08-20T01:23:56.833Z,22.56
2022-08-20T01:26:55.870Z,22.54
2022-08-20T01:29:31.134Z,22.49
2022-08-20T01:32:02.242Z,22.44
2022-08-20T01:34:30.869Z,22.40
2022-08-20T01:37:14.728Z,22.37
2022-08-20T01:40:01.469Z,22.35
2022-08-20T01:43:06.996Z,22.33
2022-08-20T01:46:02.400Z,22.30
2022-08-20T01:49:13.604Z,22.27
2022-08-20T01:51:55.739Z,22.25
2022-08-20T01:54:34.319Z,22.25
2022-08-20T01:57:18.916Z,22.25
2022-08-20T02:00:01.953Z,22.26
2022-08-20T02:02:47.982Z,22.27
2022-08-20T02:05:44.620Z,22.25
2022-08-20T02:08:25.676Z,22.22
2022-08-20T02:11:22.399Z,22.18
2022-08-20T02:14:26.609Z,22.15
2022-08-20T02:17:23.510Z,22.11
2022-08-20T02:19:55.223Z,22.04
2022-08-20T02:22:39.785Z,22.01
2022-08-20T02:25:23.118Z,21.97
2022-08-20T02:28:13.222Z,21.95
2022-08-20T02:30:49.294Z,21.92
2022-08-20T02:33:35.874Z,21.89
2022-08-20T02:36:12.394Z,21.83
2022-08-20T02:38:44.654Z,21.84
2022-08-20T02:41:24.559Z,21.79
2022-08-20T02:44:10.911Z,21.75
2022-08-20T02:47:18.718Z,21.72
2022-08-20T02:49:53.469Z,21.71
2022-08-20T02:52:35.544Z,21.68
2022-08-20T02:55:28.114Z,21.63
2022-08-20T02:58:17.037Z,21.60
2022-08-20T03:00:54.894Z,21.57
2022-08-20T03:03:49.971Z,21.54
2022-08-20T03:06:27.142Z,21.44
2022-08-20T03:09:08.882Z,21.39
2022-08-20T03:11:47.710Z,21.40
2022-08-20T03:14:47.448Z,21.38
2022-08-20T03:17:30.183Z,21.36
2022-08-20T03:20:43.291Z,21.30
2022-08-20T03:23:25.472Z,21.27
2022-08-20T03:26:13.020Z,21.27
2022-08-20T03:28:55.928Z,21.27
2022-08-20T03:31:46.168Z,21.20
2022-08-20T03:34:34.263Z,21.18
2022-08-20T03:37:11.800Z,21.20
2022-08-20T03:40:04.080Z,21.23
2022-08-20T03:42:42.698Z,21.27
2022-08-20T03:45:29.829Z,21.28
2022-08-20T03:48:22.048Z,21.27
2022-08-20T03:51:17.832Z,21.23
2022-08-20T03:53:45.719Z,21.22
2022-08-20T03:56:30.220Z,21.18
2022-08-20T03:59:15.055Z,21.15
2022-08-20T04:01:54.523Z,21.13
2022-08-20T04:04:44.418Z,21.16
2022-08-20T04:07:26.187Z,21.14
2022-08-20T04:09:56.178Z,21.14
2022-08-20T04:13:16.054Z,21.15
2022-08-20T04:15:54.176Z,21.18
2022-08-20T04:18:33.480Z,21.17
2022-08-20T04:21:09.663Z,21.14
2022-08-20T04:23:55.520Z,21.10
2022-08-20T04:26:53.130Z,21.10
2022-08-20T04:29:55.874Z,21.20
2022-08-20T04:32:28.987Z,21.28
2022-08-20T04:35:12.206Z,21.34
2022-08-20T04:37:46.026Z,21.38
2022-08-20T04:40:38.580Z,21.37
2022-08-20T04:43:28.473Z,21.37
2022-08-20T04:46:24.028Z,21.37
2022-08-20T04:48:54.271Z,21.38
2022-08-20T04:51:37.063Z,21.40
2022-08-20T04:54:22.075Z,21.47
2022-08-20T04:57:10.684Z,21.51
2022-08-20T04:59:53.886Z,21.56
2022-08-20T05:02:26.322Z,21.59
2022-08-20T05:04:59.400Z,21.63
2022-08-20T05:07:40.199Z,21.66
2022-08-20T05:10:28.276Z,21.70
2022-08-20T05:13:22.141Z,21.73
2022-08-20T05:16:26.783Z,21.77
2022-08-20T05:19:12.486Z,21.78
2022-08-20T05:22:02.743Z,21.72
2022-08-20T05:25:10.714Z,21.71
2022-08-20T05:27:49.060Z,21.71
2022-08-20T05:30:34.404Z,21.72
2022-08-20T05:33:22.787Z,21.76
2022-08-20T05:36:32.623Z,21.79
2022-08-20T05:39:23.803Z,21.84
2022-08-20T05:41:53.048Z,21.93
2022-08-20T05:44:31.765Z,21.96
2022-08-20T05:47:01.741Z,22.01
2022-08-20T05:50:06.701Z,22.05
2022-08-20T05:52:54.819Z,22.10
2022-08-20T05:55:50.539Z,22.07
2022-08-20T05:58:29.090Z,22.05
2022-08-20T06:01:18.347Z,22.10
2022-08-20T06:04:19.594Z,22.10
2022-08-20T06:07:16.439Z,22.13
2022-08-20T06:10:00.443Z,22.20
2022-08-20T06:12:32.771Z,22.21
2022-08-20T06:15:23.697Z,22.26
2022-08-20T06:18:39.205Z,22.31
2022-08-20T06:21:18.060Z,22.30
2022-08-20T06:23:59.541Z,22.33
2022-08-20T06:26:39.048Z,22.33
2022-08-20T06:29:27.559Z,22.35
2022-08-20T06:32:11.402Z,22.34
2022-08-20T06:34:57.792Z,22.37
2022-08-20T06:37:33.804Z,22.41
2022-08-20T06:40:23.181Z,22.44
2022-08-20T06:42:59.665Z,22.48
2022-08-20T06:45:29.644Z,22.57
2022-08-20T06:48:18.036Z,22.64
2022-08-20T06:51:14.435Z,22.65
2022-08-20T06:53:56.546Z,22.67
2022-08-20T06:56:45.356Z,22.66
2022-08-20T07:00:00.653Z,22.67
2022-08-20T07:02:30.042Z,22.75
2022-08-20T07:05:32.580Z,22.79
2022-08-20T07:08:16.534Z,22.85
2022-08-20T07:11:09.990Z,22.85
2022-08-20T07:14:01.067Z,22.90
2022-08-20T07:17:06.802Z,22.99
2022-08-20T07:20:10.633Z,23.07
2022-08-20T07:23:20.289Z,23.09
2022-08-20T07:26:23.078Z,23.16
2022-08-20T07:29:00.226Z,23.26
2022-08-20T07:31:48.265Z,23.35
2022-08-20T07:34:43.663Z,23.36
2022-08-20T07:37:57.250Z,23.35
2022-08-20T07:40:57.170Z,23.37
2022-08-20T07:46:54.641Z,23.49
2022-08-20T07:49:33.205Z,23.53
2022-08-20T07:52:36.217Z,23.64
2022-08-20T07:55:13.411Z,23.75
2022-08-20T07:57:57.049Z,23.87
2022-08-20T08:00:47.259Z,24.02
2022-08-20T08:03:40.442Z,24.20
2022-08-20T08:06:34.751Z,24.38
2022-08-20T08:09:20.240Z,24.46
2022-08-20T08:11:59.537Z,24.53
2022-08-20T08:15:03.176Z,24.69
2022-08-20T08:17:52.334Z,24.84
2022-08-20T08:20:46.887Z,24.96
2022-08-20T08:23:24.794Z,25.10
2022-08-20T08:26:33.364Z,25.31
2022-08-20T08:29:15.879Z,25.49
2022-08-20T08:34:57.908Z,25.72
2022-08-20T08:37:30.486Z,25.81
2022-08-20T08:40:27.312Z,25.89
2022-08-20T08:43:21.425Z,26.02
2022-08-20T08:46:13.670Z,26.03
2022-08-20T08:48:54.207Z,26.07
2022-08-20T08:51:33.689Z,26.09
2022-08-20T08:54:08.071Z,26.22
2022-08-20T08:56:49.817Z,26.36
2022-08-20T08:59:56.216Z,26.45
2022-08-20T09:02:51.504Z,26.42
2022-08-20T09:05:24.453Z,26.44
2022-08-20T09:08:11.678Z,26.46
2022-08-20T09:10:56.526Z,26.44
2022-08-20T09:13:46.587Z,26.47
2022-08-20T09:16:22.643Z,26.46
2022-08-20T09:19:11.069Z,26.50
2022-08-20T09:22:07.535Z,26.58
2022-08-20T09:25:03.383Z,26.67
2022-08-20T09:27:51.740Z,26.70
2022-08-20T09:30:46.190Z,26.80
2022-08-20T09:33:23.353Z,27.02
2022-08-20T09:36:33.950Z,27.05
2022-08-20T09:39:14.629Z,27.20
2022-08-20T09:42:10.460Z,27.45
2022-08-20T09:44:50.690Z,27.61
2022-08-20T09:47:55.094Z,27.72
2022-08-20T09:51:06.286Z,27.92
2022-08-20T09:53:45.136Z,28.18
2022-08-20T09:56:44.825Z,28.44
2022-08-20T09:59:20.753Z,28.77
2022-08-20T10:02:00.945Z,29.11
2022-08-20T10:04:42.503Z,29.44
2022-08-20T10:07:37.224Z,29.47
2022-08-20T10:10:08.885Z,29.44
2022-08-20T10:12:56.302Z,29.70
2022-08-20T10:15:33.345Z,30.04
2022-08-20T10:18:07.345Z,30.01
2022-08-20T10:20:51.127Z,30.21
2022-08-20T10:23:59.923Z,30.34
2022-08-20T10:26:56.142Z,30.53
2022-08-20T10:29:46.852Z,30.53
2022-08-20T10:32:34.285Z,30.39
2022-08-20T10:35:11.014Z,30.53
2022-08-20T10:37:55.542Z,30.76
2022-08-20T10:40:39.399Z,30.92
2022-08-20T10:43:29.015Z,30.80
2022-08-20T10:46:10.099Z,30.60
2022-08-20T10:48:50.905Z,30.59
2022-08-20T10:51:40.890Z,30.79
2022-08-20T10:54:28.086Z,31.04
2022-08-20T10:57:03.169Z,31.16
2022-08-20T10:59:51.779Z,31.43
2022-08-20T11:02:27.818Z,31.52
2022-08-20T11:05:19.201Z,31.78
2022-08-20T11:08:11.711Z,32.03
2022-08-20T11:10:43.924Z,32.09
2022-08-20T11:13:34.095Z,32.07
2022-08-20T11:16:34.541Z,32.12
2022-08-20T11:19:27.247Z,32.32
2022-08-20T11:22:40.558Z,32.47
2022-08-20T11:25:36.190Z,32.61
2022-08-20T11:28:32.243Z,32.70
2022-08-20T11:31:13.001Z,32.80
2022-08-20T11:33:46.861Z,33.01
2022-08-20T11:36:38.328Z,32.98
2022-08-20T11:39:25.909Z,32.44
2022-08-20T11:42:25.128Z,32.08
2022-08-20T11:44:59.170Z,32.14
2022-08-20T11:47:38.216Z,31.84
2022-08-20T11:50:36.328Z,31.79
2022-08-20T11:53:08.038Z,32.03
2022-08-20T11:56:03.827Z,32.27
2022-08-20T11:58:39.371Z,32.35
2022-08-20T12:02:01.950Z,32.51
2022-08-20T12:05:09.289Z,32.48
2022-08-20T12:08:26.893Z,32.56
2022-08-20T12:11:23.055Z,32.34
2022-08-20T12:13:56.777Z,32.43
2022-08-20T12:16:27.334Z,32.40
2022-08-20T12:19:26.820Z,32.29
2022-08-20T12:22:35.821Z,32.33
2022-08-20T12:25:10.813Z,32.05
2022-08-20T12:28:26.568Z,32.04
2022-08-20T12:31:06.625Z,32.17
2022-08-20T12:33:46.885Z,32.30
2022-08-20T12:36:49.974Z,32.28
2022-08-20T12:39:35.458Z,31.96
2022-08-20T12:42:10.793Z,32.13
2022-08-20T12:45:24.790Z,32.14
2022-08-20T12:48:14.226Z,32.22
2022-08-20T12:51:18.431Z,32.35
2022-08-20T12:54:03.610Z,32.43
2022-08-20T12:56:53.422Z,32.71
2022-08-20T12:59:37.226Z,32.75
2022-08-20T13:02:23.756Z,32.92
2022-08-20T13:05:18.888Z,32.98
2022-08-20T13:07:58.010Z,32.98
2022-08-20T13:10:53.637Z,33.07
2022-08-20T13:13:46.483Z,33.10
2022-08-20T13:16:45.737Z,33.33
2022-08-20T13:19:24.497Z,33.36
2022-08-20T13:22:07.940Z,33.22
2022-08-20T13:24:59.268Z,32.87
2022-08-20T13:27:41.571Z,33.26
2022-08-20T13:30:13.492Z,33.43
2022-08-20T13:33:09.390Z,33.14
2022-08-20T13:35:52.051Z,33.19
2022-08-20T13:38:37.404Z,33.16
2022-08-20T13:41:30.004Z,33.16
2022-08-20T13:44:11.659Z,33.12
2022-08-20T13:46:59.862Z,33.05
2022-08-20T13:50:07.249Z,32.62
2022-08-20T13:52:51.111Z,32.62
2022-08-20T13:55:44.468Z,32.51
2022-08-20T13:58:27.318Z,32.50
2022-08-20T14:01:24.418Z,32.36
2022-08-20T14:04:01.964Z,32.13
2022-08-20T14:06:51.494Z,32.14
2022-08-20T14:10:11.639Z,31.97
2022-08-20T14:12:49.910Z,32.02
2022-08-20T14:16:00.313Z,32.23
2022-08-20T14:18:27.748Z,32.52
2022-08-20T14:21:16.900Z,32.47
2022-08-20T14:24:05.824Z,32.48
2022-08-20T14:26:59.518Z,32.43
2022-08-20T14:29:39.491Z,32.16
2022-08-20T14:32:16.831Z,32.22
2022-08-20T14:34:56.559Z,32.11
2022-08-20T14:37:37.586Z,32.14
2022-08-20T14:40:28.042Z,32.25
2022-08-20T14:43:08.341Z,32.07
2022-08-20T14:45:44.942Z,31.76
2022-08-20T14:48:24.445Z,31.50
2022-08-20T14:51:18.021Z,31.37
2022-08-20T14:54:07.439Z,31.02
2022-08-20T14:56:40.433Z,30.87
2022-08-20T14:59:34.019Z,30.73
2022-08-20T15:02:14.137Z,30.60
2022-08-20T15:05:00.475Z,30.51
2022-08-20T15:07:32.536Z,30.36
2022-08-20T15:10:10.125Z,30.27
2022-08-20T15:12:54.244Z,30.19
2022-08-20T15:15:47.441Z,30.04
2022-08-20T15:18:18.908Z,29.90
2022-08-20T15:20:53.188Z,29.89
2022-08-20T15:23:57.055Z,29.91
2022-08-20T15:27:02.992Z,29.95
2022-08-20T15:29:55.103Z,29.90
2022-08-20T15:32:55.219Z,29.75
2022-08-20T15:35:26.945Z,29.74
2022-08-20T15:38:32.028Z,29.75
2022-08-20T15:41:25.006Z,29.72
2022-08-20T15:44:32.279Z,29.72
2022-08-20T15:47:54.698Z,29.69
2022-08-20T15:50:48.511Z,29.68
2022-08-20T15:53:42.100Z,29.65
2022-08-20T15:56:37.018Z,29.52
2022-08-20T15:59:24.569Z,29.38
2022-08-20T16:02:05.676Z,29.23
2022-08-20T16:05:07.948Z,29.08
2022-08-20T16:08:01.443Z,28.99
2022-08-20T16:11:21.847Z,28.93
2022-08-20T16:14:24.358Z,28.78
2022-08-20T16:17:03.508Z,28.69
2022-08-20T16:20:01.450Z,28.62
2022-08-20T16:22:53.257Z,28.52
2022-08-20T16:25:54.989Z,28.47
2022-08-20T16:28:48.695Z,28.39
2022-08-20T16:31:41.248Z,28.34
2022-08-20T16:34:33.628Z,28.31
2022-08-20T16:37:23.432Z,28.26
2022-08-20T16:40:12.237Z,28.21
2022-08-20T16:43:14.137Z,28.14
2022-08-20T16:46:20.195Z,28.09
2022-08-20T16:49:14.862Z,28.00
2022-08-20T16:52:05.488Z,27.90
2022-08-20T16:55:07.510Z,27.83
2022-08-20T16:58:05.765Z,27.76
2022-08-20T17:00:53.199Z,27.67
2022-08-20T17:03:42.142Z,27.57
2022-08-20T17:06:35.466Z,27.45
2022-08-20T17:09:23.965Z,27.36
2022-08-20T17:12:16.729Z,27.26
2022-08-20T17:15:15.631Z,27.14
2022-08-20T17:17:56.541Z,27.02
2022-08-20T17:21:22.233Z,26.94
2022-08-20T17:24:05.437Z,26.85
2022-08-20T17:27:10.449Z,26.80
2022-08-20T17:30:20.169Z,26.73
2022-08-20T17:33:04.511Z,26.67
2022-08-20T17:35:51.167Z,26.62
2022-08-20T17:38:39.949Z,26.55
2022-08-20T17:41:39.947Z,26.50
2022-08-20T17:44:24.866Z,26.42
2022-08-20T17:47:17.492Z,26.37
2022-08-20T17:50:22.186Z,26.31
2022-08-20T17:53:07.029Z,26.22
2022-08-20T17:55:38.680Z,26.15
2022-08-20T17:58:38.074Z,26.09
2022-08-20T18:01:34.061Z,26.02
2022-08-20T18:04:31.013Z,25.96
2022-08-20T18:07:35.330Z,25.86
2022-08-20T18:10:52.714Z,25.78
2022-08-20T18:13:26.125Z,25.71
2022-08-20T18:16:03.571Z,25.64
2022-08-20T18:18:59.988Z,25.56
2022-08-20T18:21:43.283Z,25.47
2022-08-20T18:24:41.161Z,25.42
2022-08-20T18:27:30.832Z,25.37
2022-08-20T18:30:20.782Z,25.33
2022-08-20T18:33:01.274Z,25.29
2022-08-20T18:35:48.541Z,25.24
2022-08-20T18:38:42.246Z,25.19
2022-08-20T18:41:46.481Z,25.12
2022-08-20T18:44:45.564Z,25.04
2022-08-20T18:47:48.198Z,24.98
2022-08-20T18:50:24.765Z,24.89
2022-08-20T18:53:09.924Z,24.83
2022-08-20T18:55:55.515Z,24.79
2022-08-20T18:58:31.086Z,24.74
2022-08-20T19:01:31.432Z,24.68
2022-08-20T19:05:02.117Z,24.60
2022-08-20T19:08:06.206Z,24.53
2022-08-20T19:11:08.595Z,24.49
2022-08-20T19:14:04.572Z,24.46
2022-08-20T19:16:55.554Z,24.43
2022-08-20T19:19:47.385Z,24.40
2022-08-20T19:22:43.135Z,24.38
2022-08-20T19:25:29.188Z,24.35
2022-08-20T19:28:20.202Z,24.31
2022-08-20T19:31:03.399Z,24.28
2022-08-20T19:34:19.925Z,24.27
2022-08-20T19:37:07.778Z,24.24
2022-08-20T19:40:43.671Z,24.20
2022-08-20T19:43:26.871Z,24.16
2022-08-20T19:46:02.095Z,24.14
2022-08-20T19:48:47.373Z,24.13
2022-08-20T19:51:37.356Z,24.10
2022-08-20T19:54:33.815Z,24.07
2022-08-20T19:57:08.089Z,24.04
2022-08-20T19:59:46.083Z,24.01
2022-08-20T20:02:25.919Z,23.99
2022-08-20T20:05:16.148Z,23.95
2022-08-20T20:08:17.758Z,23.89
2022-08-20T20:11:24.481Z,23.84
2022-08-20T20:14:30.555Z,23.78
2022-08-20T20:17:30.772Z,23.74
2022-08-20T20:20:21.788Z,23.67
2022-08-20T20:23:38.822Z,23.63
2022-08-20T20:26:48.768Z,23.61
2022-08-20T20:29:41.004Z,23.55
2022-08-20T20:32:41.473Z,23.52
2022-08-20T20:35:32.203Z,23.46
2022-08-20T20:38:16.045Z,23.40
2022-08-20T20:43:55.280Z,23.30
2022-08-20T20:46:28.107Z,23.25
2022-08-20T20:49:24.255Z,23.21
2022-08-20T20:52:18.399Z,23.17
2022-08-20T20:55:20.663Z,23.13
2022-08-20T20:58:00.296Z,23.11
2022-08-20T21:00:54.695Z,23.10
2022-08-20T21:03:46.706Z,23.08
2022-08-20T21:06:14.736Z,23.07
2022-08-20T21:09:10.160Z,23.06
2022-08-20T21:11:59.746Z,23.05
2022-08-20T21:14:58.028Z,23.02
2022-08-20T21:17:44.515Z,22.99
2022-08-20T21:20:18.496Z,22.96
2022-08-20T21:23:02.064Z,22.97
2022-08-20T21:25:41.766Z,22.98
2022-08-20T21:28:18.728Z,22.98
2022-08-20T21:30:51.791Z,22.97
2022-08-20T21:33:58.679Z,22.95
2022-08-20T21:36:39.834Z,22.96
2022-08-20T21:39:39.007Z,22.96
2022-08-20T21:42:37.463Z,22.95
2022-08-20T21:45:34.546Z,22.93
2022-08-20T21:48:09.586Z,22.91
2022-08-20T21:50:57.878Z,22.91
2022-08-20T21:53:52.023Z,22.91
2022-08-20T21:56:27.264Z,22.91
2022-08-20T21:59:15.904Z,22.90
2022-08-20T22:01:55.959Z,22.86
2022-08-20T22:04:51.373Z,22.83
2022-08-20T22:07:51.224Z,22.81
2022-08-20T22:10:30.094Z,22.80
2022-08-20T22:13:15.944Z,22.76
2022-08-20T22:15:56.685Z,22.74
2022-08-20T22:18:32.136Z,22.71
2022-08-20T22:21:12.308Z,22.71
2022-08-20T22:23:50.158Z,22.69
2022-08-20T22:26:23.574Z,22.65
2022-08-20T22:29:15.239Z,22.63
2022-08-20T22:32:19.392Z,22.61
2022-08-20T22:35:16.111Z,22.59
2022-08-20T22:37:52.088Z,22.54
2022-08-20T22:40:38.288Z,22.52
2022-08-20T22:43:55.848Z,22.52
2022-08-20T22:47:20.144Z,22.52
2022-08-20T22:50:00.766Z,22.49
2022-08-20T22:53:10.117Z,22.45
2022-08-20T22:59:20.766Z,22.38
2022-08-20T23:02:06.607Z,22.36
2022-08-20T23:05:10.875Z,22.34
2022-08-20T23:07:54.421Z,22.31
2022-08-20T23:10:34.734Z,22.29
2022-08-20T23:13:18.838Z,22.28
2022-08-20T23:16:06.420Z,22.25
2022-08-20T23:18:50.118Z,22.21
2022-08-20T23:21:53.780Z,22.20
2022-08-20T23:24:43.447Z,22.18
2022-08-20T23:27:31.102Z,22.21
2022-08-20T23:30:57.959Z,22.21
2022-08-20T23:33:56.611Z,22.19
2022-08-20T23:36:59.990Z,22.17
2022-08-20T23:39:47.363Z,22.13
2022-08-20T23:42:43.661Z,22.09
2022-08-20T23:45:39.808Z,22.05
2022-08-20T23:48:10.705Z,22.02
2022-08-20T23:50:56.576Z,22.00
2022-08-20T23:53:26.757Z,21.97
2022-08-20T23:56:07.444Z,21.91
2022-08-20T23:59:24.954Z,21.84
